sensor_id;sensor_type;location;lat;lon;timestamp;P1;durP1;ratioP1;P2;durP2;ratioP2
77955;SDS011;67152;36.266;32.294;2023-08-07T00:01:35;13.73;;;5.60;;
77955;SDS011;67152;36.266;32.294;2023-08-07T00:04:02;14.35;;;5.68;;
77955;SDS011;67152;36.266;32.294;2023-08-07T00:06:28;15.32;;;6.28;;
77955;SDS011;67152;36.266;32.294;2023-08-07T00:08:55;19.48;;;7.72;;
77955;SDS011;67152;36.266;32.294;2023-08-07T00:11:21;14.48;;;7.10;;
77955;SDS011;67152;36.266;32.294;2023-08-07T00:13:48;12.35;;;6.40;;
77955;SDS011;67152;36.266;32.294;2023-08-07T00:16:14;14.85;;;7.65;;
77955;SDS011;67152;36.266;32.294;2023-08-07T00:18:41;11.65;;;6.47;;
77955;SDS011;67152;36.266;32.294;2023-08-07T00:21:07;14.07;;;6.85;;
77955;SDS011;67152;36.266;32.294;2023-08-07T00:23:34;15.00;;;5.95;;
77955;SDS011;67152;36.266;32.294;2023-08-07T00:26:01;20.90;;;7.15;;
77955;SDS011;67152;36.266;32.294;2023-08-07T00:28:27;11.80;;;6.00;;
77955;SDS011;67152;36.266;32.294;2023-08-07T00:30:55;11.43;;;6.70;;
77955;SDS011;67152;36.266;32.294;2023-08-07T00:33:22;11.02;;;6.22;;
77955;SDS011;67152;36.266;32.294;2023-08-07T00:35:48;18.75;;;6.13;;
77955;SDS011;67152;36.266;32.294;2023-08-07T00:38:15;22.25;;;6.63;;
77955;SDS011;67152;36.266;32.294;2023-08-07T00:40:41;20.65;;;6.97;;
77955;SDS011;67152;36.266;32.294;2023-08-07T00:43:08;15.45;;;6.35;;
77955;SDS011;67152;36.266;32.294;2023-08-07T00:45:36;13.23;;;6.43;;
77955;SDS011;67152;36.266;32.294;2023-08-07T00:48:12;18.77;;;6.93;;
77955;SDS011;67152;36.266;32.294;2023-08-07T00:50:39;13.48;;;6.00;;
77955;SDS011;67152;36.266;32.294;2023-08-07T00:53:08;11.98;;;6.65;;
77955;SDS011;67152;36.266;32.294;2023-08-07T00:58:01;20.75;;;6.70;;
77955;SDS011;67152;36.266;32.294;2023-08-07T01:00:28;14.82;;;7.07;;
77955;SDS011;67152;36.266;32.294;2023-08-07T01:02:56;18.88;;;6.20;;
77955;SDS011;67152;36.266;32.294;2023-08-07T01:05:24;13.73;;;6.78;;
77955;SDS011;67152;36.266;32.294;2023-08-07T01:07:53;11.05;;;6.13;;
77955;SDS011;67152;36.266;32.294;2023-08-07T01:10:33;11.43;;;6.10;;
77955;SDS011;67152;36.266;32.294;2023-08-07T01:13:29;9.02;;;6.18;;
77955;SDS011;67152;36.266;32.294;2023-08-07T01:16:13;14.23;;;6.00;;
77955;SDS011;67152;36.266;32.294;2023-08-07T01:18:58;14.57;;;6.25;;
77955;SDS011;67152;36.266;32.294;2023-08-07T01:21:27;9.77;;;6.43;;
77955;SDS011;67152;36.266;32.294;2023-08-07T01:23:53;12.32;;;6.40;;
77955;SDS011;67152;36.266;32.294;2023-08-07T01:26:20;10.93;;;6.70;;
77955;SDS011;67152;36.266;32.294;2023-08-07T01:29:02;12.45;;;5.78;;
77955;SDS011;67152;36.266;32.294;2023-08-07T01:31:33;13.10;;;6.37;;
77955;SDS011;67152;36.266;32.294;2023-08-07T01:34:02;11.15;;;6.20;;
77955;SDS011;67152;36.266;32.294;2023-08-07T01:36:31;12.48;;;6.70;;
77955;SDS011;67152;36.266;32.294;2023-08-07T01:38:57;13.55;;;6.53;;
77955;SDS011;67152;36.266;32.294;2023-08-07T01:41:26;9.02;;;6.32;;
77955;SDS011;67152;36.266;32.294;2023-08-07T01:43:54;8.88;;;6.05;;
77955;SDS011;67152;36.266;32.294;2023-08-07T01:46:20;11.52;;;6.50;;
77955;SDS011;67152;36.266;32.294;2023-08-07T01:48:47;12.75;;;6.38;;
77955;SDS011;67152;36.266;32.294;2023-08-07T01:51:13;15.32;;;6.53;;
77955;SDS011;67152;36.266;32.294;2023-08-07T01:53:40;10.32;;;6.78;;
77955;SDS011;67152;36.266;32.294;2023-08-07T01:56:06;16.33;;;7.25;;
77955;SDS011;67152;36.266;32.294;2023-08-07T01:58:33;12.20;;;7.32;;
77955;SDS011;67152;36.266;32.294;2023-08-07T02:00:59;14.30;;;7.10;;
77955;SDS011;67152;36.266;32.294;2023-08-07T02:03:26;10.20;;;7.20;;
77955;SDS011;67152;36.266;32.294;2023-08-07T02:05:52;10.50;;;6.65;;
77955;SDS011;67152;36.266;32.294;2023-08-07T02:08:37;15.63;;;7.28;;
77955;SDS011;67152;36.266;32.294;2023-08-07T02:11:03;15.63;;;7.57;;
77955;SDS011;67152;36.266;32.294;2023-08-07T02:13:30;12.82;;;7.88;;
77955;SDS011;67152;36.266;32.294;2023-08-07T02:15:57;13.15;;;7.55;;
77955;SDS011;67152;36.266;32.294;2023-08-07T02:18:23;14.88;;;7.30;;
77955;SDS011;67152;36.266;32.294;2023-08-07T02:20:50;11.40;;;6.97;;
77955;SDS011;67152;36.266;32.294;2023-08-07T02:23:16;10.27;;;6.93;;
77955;SDS011;67152;36.266;32.294;2023-08-07T02:25:42;15.23;;;7.60;;
77955;SDS011;67152;36.266;32.294;2023-08-07T02:28:11;12.65;;;7.25;;
77955;SDS011;67152;36.266;32.294;2023-08-07T02:30:37;10.32;;;6.47;;
77955;SDS011;67152;36.266;32.294;2023-08-07T02:33:04;16.40;;;7.93;;
77955;SDS011;67152;36.266;32.294;2023-08-07T02:35:30;14.90;;;7.05;;
77955;SDS011;67152;36.266;32.294;2023-08-07T02:37:57;12.40;;;7.35;;
77955;SDS011;67152;36.266;32.294;2023-08-07T02:40:23;14.70;;;6.68;;
77955;SDS011;67152;36.266;32.294;2023-08-07T02:42:50;13.35;;;6.45;;
77955;SDS011;67152;36.266;32.294;2023-08-07T02:45:17;10.75;;;6.88;;
77955;SDS011;67152;36.266;32.294;2023-08-07T02:47:44;12.40;;;7.03;;
77955;SDS011;67152;36.266;32.294;2023-08-07T02:50:10;11.45;;;6.60;;
77955;SDS011;67152;36.266;32.294;2023-08-07T02:52:37;14.82;;;7.03;;
77955;SDS011;67152;36.266;32.294;2023-08-07T02:55:03;10.32;;;6.82;;
77955;SDS011;67152;36.266;32.294;2023-08-07T02:59:56;13.05;;;7.30;;
77955;SDS011;67152;36.266;32.294;2023-08-07T03:02:23;21.75;;;7.60;;
77955;SDS011;67152;36.266;32.294;2023-08-07T03:04:49;13.90;;;8.15;;
77955;SDS011;67152;36.266;32.294;2023-08-07T03:07:16;21.30;;;8.32;;
77955;SDS011;67152;36.266;32.294;2023-08-07T03:09:45;15.38;;;6.97;;
77955;SDS011;67152;36.266;32.294;2023-08-07T03:12:13;19.00;;;8.20;;
77955;SDS011;67152;36.266;32.294;2023-08-07T03:14:39;14.82;;;7.35;;
77955;SDS011;67152;36.266;32.294;2023-08-07T03:17:05;14.13;;;7.60;;
77955;SDS011;67152;36.266;32.294;2023-08-07T03:19:32;16.58;;;8.32;;
77955;SDS011;67152;36.266;32.294;2023-08-07T03:21:59;16.75;;;7.30;;
77955;SDS011;67152;36.266;32.294;2023-08-07T03:24:25;9.73;;;5.95;;
77955;SDS011;67152;36.266;32.294;2023-08-07T03:26:51;19.90;;;8.15;;
77955;SDS011;67152;36.266;32.294;2023-08-07T03:29:18;13.10;;;7.60;;
77955;SDS011;67152;36.266;32.294;2023-08-07T03:31:44;14.40;;;7.25;;
77955;SDS011;67152;36.266;32.294;2023-08-07T03:34:11;13.38;;;7.05;;
77955;SDS011;67152;36.266;32.294;2023-08-07T03:36:38;13.43;;;7.53;;
77955;SDS011;67152;36.266;32.294;2023-08-07T03:39:04;12.10;;;6.90;;
77955;SDS011;67152;36.266;32.294;2023-08-07T03:41:31;9.10;;;6.18;;
77955;SDS011;67152;36.266;32.294;2023-08-07T03:43:57;11.60;;;7.10;;
77955;SDS011;67152;36.266;32.294;2023-08-07T03:46:24;11.32;;;6.70;;
77955;SDS011;67152;36.266;32.294;2023-08-07T03:48:50;11.98;;;7.22;;
77955;SDS011;67152;36.266;32.294;2023-08-07T03:51:17;15.55;;;7.28;;
77955;SDS011;67152;36.266;32.294;2023-08-07T03:53:44;12.23;;;7.45;;
77955;SDS011;67152;36.266;32.294;2023-08-07T03:56:10;15.15;;;7.40;;
77955;SDS011;67152;36.266;32.294;2023-08-07T03:58:37;13.20;;;7.15;;
77955;SDS011;67152;36.266;32.294;2023-08-07T04:01:03;13.90;;;6.97;;
77955;SDS011;67152;36.266;32.294;2023-08-07T04:03:30;20.10;;;7.65;;
77955;SDS011;67152;36.266;32.294;2023-08-07T04:05:56;14.52;;;6.75;;
77955;SDS011;67152;36.266;32.294;2023-08-07T04:08:23;13.98;;;6.43;;
77955;SDS011;67152;36.266;32.294;2023-08-07T04:10:59;17.38;;;6.25;;
77955;SDS011;67152;36.266;32.294;2023-08-07T04:13:29;12.15;;;5.95;;
77955;SDS011;67152;36.266;32.294;2023-08-07T04:15:56;18.45;;;6.65;;
77955;SDS011;67152;36.266;32.294;2023-08-07T04:18:24;15.45;;;6.47;;
77955;SDS011;67152;36.266;32.294;2023-08-07T04:23:18;17.27;;;6.45;;
77955;SDS011;67152;36.266;32.294;2023-08-07T04:25:45;12.38;;;7.00;;
77955;SDS011;67152;36.266;32.294;2023-08-07T04:28:12;24.02;;;6.53;;
77955;SDS011;67152;36.266;32.294;2023-08-07T04:30:40;15.70;;;6.65;;
77955;SDS011;67152;36.266;32.294;2023-08-07T04:33:07;13.02;;;6.13;;
77955;SDS011;67152;36.266;32.294;2023-08-07T04:38:00;10.73;;;6.22;;
77955;SDS011;67152;36.266;32.294;2023-08-07T04:40:28;13.50;;;6.18;;
77955;SDS011;67152;36.266;32.294;2023-08-07T04:42:55;11.82;;;6.40;;
77955;SDS011;67152;36.266;32.294;2023-08-07T04:47:48;9.90;;;6.03;;
77955;SDS011;67152;36.266;32.294;2023-08-07T04:50:15;13.15;;;6.50;;
77955;SDS011;67152;36.266;32.294;2023-08-07T04:52:41;18.40;;;7.03;;
77955;SDS011;67152;36.266;32.294;2023-08-07T04:55:08;9.48;;;5.45;;
77955;SDS011;67152;36.266;32.294;2023-08-07T04:57:34;16.02;;;6.35;;
77955;SDS011;67152;36.266;32.294;2023-08-07T05:00:01;10.98;;;6.18;;
77955;SDS011;67152;36.266;32.294;2023-08-07T05:02:28;13.30;;;5.90;;
77955;SDS011;67152;36.266;32.294;2023-08-07T05:04:55;13.23;;;6.47;;
77955;SDS011;67152;36.266;32.294;2023-08-07T05:07:21;11.43;;;6.18;;
77955;SDS011;67152;36.266;32.294;2023-08-07T05:09:47;18.55;;;6.70;;
77955;SDS011;67152;36.266;32.294;2023-08-07T05:12:15;23.42;;;6.40;;
77955;SDS011;67152;36.266;32.294;2023-08-07T05:14:41;13.50;;;6.70;;
77955;SDS011;67152;36.266;32.294;2023-08-07T05:17:08;16.98;;;6.70;;
77955;SDS011;67152;36.266;32.294;2023-08-07T05:19:35;17.48;;;6.93;;
77955;SDS011;67152;36.266;32.294;2023-08-07T05:22:03;19.70;;;6.20;;
77955;SDS011;67152;36.266;32.294;2023-08-07T05:24:30;15.50;;;6.78;;
77955;SDS011;67152;36.266;32.294;2023-08-07T05:27:05;12.75;;;6.07;;
77955;SDS011;67152;36.266;32.294;2023-08-07T05:29:34;16.65;;;5.75;;
77955;SDS011;67152;36.266;32.294;2023-08-07T05:32:12;11.10;;;6.10;;
77955;SDS011;67152;36.266;32.294;2023-08-07T05:34:39;11.63;;;5.50;;
77955;SDS011;67152;36.266;32.294;2023-08-07T05:37:06;11.40;;;5.30;;
77955;SDS011;67152;36.266;32.294;2023-08-07T05:39:34;14.02;;;5.90;;
77955;SDS011;67152;36.266;32.294;2023-08-07T05:42:01;42.53;;;6.85;;
77955;SDS011;67152;36.266;32.294;2023-08-07T05:44:28;16.20;;;5.80;;
77955;SDS011;67152;36.266;32.294;2023-08-07T05:46:55;14.50;;;5.93;;
77955;SDS011;67152;36.266;32.294;2023-08-07T05:49:22;14.60;;;5.00;;
77955;SDS011;67152;36.266;32.294;2023-08-07T05:51:48;15.40;;;4.82;;
77955;SDS011;67152;36.266;32.294;2023-08-07T05:54:15;11.50;;;5.60;;
77955;SDS011;67152;36.266;32.294;2023-08-07T05:56:42;9.07;;;4.47;;
77955;SDS011;67152;36.266;32.294;2023-08-07T05:59:09;13.60;;;4.65;;
77955;SDS011;67152;36.266;32.294;2023-08-07T06:01:35;11.85;;;4.63;;
77955;SDS011;67152;36.266;32.294;2023-08-07T06:04:02;8.90;;;4.57;;
77955;SDS011;67152;36.266;32.294;2023-08-07T06:06:29;8.23;;;3.75;;
77955;SDS011;67152;36.266;32.294;2023-08-07T06:09:00;11.27;;;4.20;;
77955;SDS011;67152;36.266;32.294;2023-08-07T06:11:28;9.15;;;4.60;;
77955;SDS011;67152;36.266;32.294;2023-08-07T06:13:54;7.30;;;3.95;;
77955;SDS011;67152;36.266;32.294;2023-08-07T06:16:21;8.70;;;3.92;;
77955;SDS011;67152;36.266;32.294;2023-08-07T06:18:47;10.57;;;4.75;;
77955;SDS011;67152;36.266;32.294;2023-08-07T06:21:14;12.05;;;4.60;;
77955;SDS011;67152;36.266;32.294;2023-08-07T06:23:40;8.10;;;4.05;;
77955;SDS011;67152;36.266;32.294;2023-08-07T06:26:07;8.75;;;4.30;;
77955;SDS011;67152;36.266;32.294;2023-08-07T06:28:34;8.57;;;4.22;;
77955;SDS011;67152;36.266;32.294;2023-08-07T06:31:08;11.65;;;4.10;;
77955;SDS011;67152;36.266;32.294;2023-08-07T06:33:36;8.77;;;4.22;;
77955;SDS011;67152;36.266;32.294;2023-08-07T06:36:03;11.77;;;4.10;;
77955;SDS011;67152;36.266;32.294;2023-08-07T06:38:30;9.85;;;4.50;;
77955;SDS011;67152;36.266;32.294;2023-08-07T06:40:57;12.00;;;4.28;;
77955;SDS011;67152;36.266;32.294;2023-08-07T06:43:24;13.32;;;4.22;;
77955;SDS011;67152;36.266;32.294;2023-08-07T06:45:50;15.23;;;4.72;;
77955;SDS011;67152;36.266;32.294;2023-08-07T06:48:20;8.38;;;3.65;;
77955;SDS011;67152;36.266;32.294;2023-08-07T06:50:47;9.45;;;4.00;;
77955;SDS011;67152;36.266;32.294;2023-08-07T06:53:14;11.77;;;4.07;;
77955;SDS011;67152;36.266;32.294;2023-08-07T06:55:41;11.77;;;3.95;;
77955;SDS011;67152;36.266;32.294;2023-08-07T06:58:10;13.13;;;4.53;;
77955;SDS011;67152;36.266;32.294;2023-08-07T07:00:37;10.52;;;3.65;;
77955;SDS011;67152;36.266;32.294;2023-08-07T07:03:04;13.40;;;4.43;;
77955;SDS011;67152;36.266;32.294;2023-08-07T07:05:31;41.95;;;4.90;;
77955;SDS011;67152;36.266;32.294;2023-08-07T07:07:58;16.80;;;4.57;;
77955;SDS011;67152;36.266;32.294;2023-08-07T07:10:25;77.25;;;6.70;;
77955;SDS011;67152;36.266;32.294;2023-08-07T07:12:52;10.90;;;3.95;;
77955;SDS011;67152;36.266;32.294;2023-08-07T07:15:19;11.73;;;3.35;;
77955;SDS011;67152;36.266;32.294;2023-08-07T07:17:45;9.85;;;4.28;;
77955;SDS011;67152;36.266;32.294;2023-08-07T07:20:12;9.85;;;4.03;;
77955;SDS011;67152;36.266;32.294;2023-08-07T07:22:39;12.48;;;4.60;;
77955;SDS011;67152;36.266;32.294;2023-08-07T07:25:06;8.27;;;3.70;;
77955;SDS011;67152;36.266;32.294;2023-08-07T07:27:33;17.27;;;4.47;;
77955;SDS011;67152;36.266;32.294;2023-08-07T07:29:59;11.10;;;4.00;;
77955;SDS011;67152;36.266;32.294;2023-08-07T07:32:26;12.80;;;4.10;;
77955;SDS011;67152;36.266;32.294;2023-08-07T07:34:53;15.60;;;4.25;;
77955;SDS011;67152;36.266;32.294;2023-08-07T07:37:19;14.85;;;4.40;;
77955;SDS011;67152;36.266;32.294;2023-08-07T07:39:45;12.93;;;4.25;;
77955;SDS011;67152;36.266;32.294;2023-08-07T07:42:12;10.15;;;4.20;;
77955;SDS011;67152;36.266;32.294;2023-08-07T07:44:39;18.08;;;3.97;;
77955;SDS011;67152;36.266;32.294;2023-08-07T07:47:05;10.52;;;4.13;;
77955;SDS011;67152;36.266;32.294;2023-08-07T07:49:33;19.75;;;4.22;;
77955;SDS011;67152;36.266;32.294;2023-08-07T07:52:00;12.65;;;3.83;;
77955;SDS011;67152;36.266;32.294;2023-08-07T07:54:27;9.73;;;4.30;;
77955;SDS011;67152;36.266;32.294;2023-08-07T07:56:55;12.70;;;4.07;;
77955;SDS011;67152;36.266;32.294;2023-08-07T07:59:21;12.63;;;4.15;;
77955;SDS011;67152;36.266;32.294;2023-08-07T08:02:08;9.95;;;4.70;;
77955;SDS011;67152;36.266;32.294;2023-08-07T08:04:35;8.43;;;4.30;;
77955;SDS011;67152;36.266;32.294;2023-08-07T08:07:02;12.43;;;4.68;;
77955;SDS011;67152;36.266;32.294;2023-08-07T08:09:29;6.85;;;4.15;;
77955;SDS011;67152;36.266;32.294;2023-08-07T08:11:56;9.88;;;4.40;;
77955;SDS011;67152;36.266;32.294;2023-08-07T08:14:22;11.18;;;3.72;;
77955;SDS011;67152;36.266;32.294;2023-08-07T08:16:49;8.30;;;3.58;;
77955;SDS011;67152;36.266;32.294;2023-08-07T08:19:16;12.57;;;4.55;;
77955;SDS011;67152;36.266;32.294;2023-08-07T08:21:42;9.68;;;4.03;;
77955;SDS011;67152;36.266;32.294;2023-08-07T08:24:14;11.85;;;3.67;;
77955;SDS011;67152;36.266;32.294;2023-08-07T08:26:59;12.70;;;3.88;;
77955;SDS011;67152;36.266;32.294;2023-08-07T08:29:26;12.90;;;4.50;;
77955;SDS011;67152;36.266;32.294;2023-08-07T08:31:54;13.05;;;3.90;;
77955;SDS011;67152;36.266;32.294;2023-08-07T08:34:25;15.80;;;3.97;;
77955;SDS011;67152;36.266;32.294;2023-08-07T08:36:52;15.43;;;4.72;;
77955;SDS011;67152;36.266;32.294;2023-08-07T08:39:18;8.93;;;3.97;;
77955;SDS011;67152;36.266;32.294;2023-08-07T08:41:46;10.90;;;3.58;;
77955;SDS011;67152;36.266;32.294;2023-08-07T08:44:16;11.20;;;4.07;;
77955;SDS011;67152;36.266;32.294;2023-08-07T08:46:43;9.82;;;3.92;;
77955;SDS011;67152;36.266;32.294;2023-08-07T08:49:11;10.95;;;3.58;;
77955;SDS011;67152;36.266;32.294;2023-08-07T08:51:42;17.05;;;3.45;;
77955;SDS011;67152;36.266;32.294;2023-08-07T08:54:11;12.90;;;3.58;;
77955;SDS011;67152;36.266;32.294;2023-08-07T08:56:37;10.63;;;3.70;;
77955;SDS011;67152;36.266;32.294;2023-08-07T08:59:07;16.30;;;4.22;;
77955;SDS011;67152;36.266;32.294;2023-08-07T09:01:34;17.55;;;3.75;;
77955;SDS011;67152;36.266;32.294;2023-08-07T09:04:02;18.38;;;3.13;;
77955;SDS011;67152;36.266;32.294;2023-08-07T09:06:31;11.32;;;3.38;;
77955;SDS011;67152;36.266;32.294;2023-08-07T09:08:58;12.68;;;3.72;;
77955;SDS011;67152;36.266;32.294;2023-08-07T09:11:27;12.50;;;3.63;;
77955;SDS011;67152;36.266;32.294;2023-08-07T09:13:55;10.45;;;3.33;;
77955;SDS011;67152;36.266;32.294;2023-08-07T09:16:22;14.95;;;3.53;;
77955;SDS011;67152;36.266;32.294;2023-08-07T09:18:51;12.15;;;3.90;;
77955;SDS011;67152;36.266;32.294;2023-08-07T09:21:20;11.23;;;3.88;;
77955;SDS011;67152;36.266;32.294;2023-08-07T09:23:47;9.30;;;3.05;;
77955;SDS011;67152;36.266;32.294;2023-08-07T09:26:15;9.68;;;3.47;;
77955;SDS011;67152;36.266;32.294;2023-08-07T09:28:50;11.73;;;3.33;;
77955;SDS011;67152;36.266;32.294;2023-08-07T09:31:23;11.15;;;3.38;;
77955;SDS011;67152;36.266;32.294;2023-08-07T09:33:52;12.40;;;3.70;;
77955;SDS011;67152;36.266;32.294;2023-08-07T09:36:19;14.88;;;3.75;;
77955;SDS011;67152;36.266;32.294;2023-08-07T09:38:49;20.38;;;3.78;;
77955;SDS011;67152;36.266;32.294;2023-08-07T09:41:19;10.80;;;3.72;;
77955;SDS011;67152;36.266;32.294;2023-08-07T09:43:46;10.38;;;3.60;;
77955;SDS011;67152;36.266;32.294;2023-08-07T09:46:13;27.25;;;4.13;;
77955;SDS011;67152;36.266;32.294;2023-08-07T09:48:41;14.35;;;4.00;;
77955;SDS011;67152;36.266;32.294;2023-08-07T09:51:08;12.55;;;4.18;;
77955;SDS011;67152;36.266;32.294;2023-08-07T09:53:35;10.40;;;3.50;;
77955;SDS011;67152;36.266;32.294;2023-08-07T09:56:02;17.83;;;3.47;;
77955;SDS011;67152;36.266;32.294;2023-08-07T09:58:29;17.08;;;3.80;;
77955;SDS011;67152;36.266;32.294;2023-08-07T10:00:58;9.85;;;3.10;;
77955;SDS011;67152;36.266;32.294;2023-08-07T10:06:20;15.10;;;3.58;;
77955;SDS011;67152;36.266;32.294;2023-08-07T10:08:49;9.10;;;3.50;;
77955;SDS011;67152;36.266;32.294;2023-08-07T10:11:15;9.38;;;3.50;;
77955;SDS011;67152;36.266;32.294;2023-08-07T10:13:42;21.73;;;3.92;;
77955;SDS011;67152;36.266;32.294;2023-08-07T10:16:09;16.85;;;4.10;;
77955;SDS011;67152;36.266;32.294;2023-08-07T10:18:37;17.08;;;4.07;;
77955;SDS011;67152;36.266;32.294;2023-08-07T10:21:05;16.65;;;4.05;;
77955;SDS011;67152;36.266;32.294;2023-08-07T10:23:34;11.68;;;3.10;;
77955;SDS011;67152;36.266;32.294;2023-08-07T10:26:03;15.60;;;4.30;;
77955;SDS011;67152;36.266;32.294;2023-08-07T10:28:30;9.75;;;3.55;;
77955;SDS011;67152;36.266;32.294;2023-08-07T10:30:59;14.25;;;3.88;;
77955;SDS011;67152;36.266;32.294;2023-08-07T10:33:26;13.25;;;3.78;;
77955;SDS011;67152;36.266;32.294;2023-08-07T10:35:53;12.32;;;3.55;;
77955;SDS011;67152;36.266;32.294;2023-08-07T10:38:20;12.52;;;3.42;;
77955;SDS011;67152;36.266;32.294;2023-08-07T10:40:59;17.70;;;3.72;;
77955;SDS011;67152;36.266;32.294;2023-08-07T10:43:29;12.68;;;3.60;;
77955;SDS011;67152;36.266;32.294;2023-08-07T10:46:03;14.43;;;3.50;;
77955;SDS011;67152;36.266;32.294;2023-08-07T10:48:54;12.00;;;4.00;;
77955;SDS011;67152;36.266;32.294;2023-08-07T10:51:29;15.60;;;4.20;;
77955;SDS011;67152;36.266;32.294;2023-08-07T10:53:58;15.07;;;3.38;;
77955;SDS011;67152;36.266;32.294;2023-08-07T10:59:11;16.90;;;4.63;;
77955;SDS011;67152;36.266;32.294;2023-08-07T11:01:42;36.10;;;3.75;;
77955;SDS011;67152;36.266;32.294;2023-08-07T11:04:14;17.42;;;3.85;;
77955;SDS011;67152;36.266;32.294;2023-08-07T11:06:42;15.90;;;3.80;;
77955;SDS011;67152;36.266;32.294;2023-08-07T11:09:10;17.60;;;3.38;;
77955;SDS011;67152;36.266;32.294;2023-08-07T11:14:08;18.55;;;4.13;;
77955;SDS011;67152;36.266;32.294;2023-08-07T11:16:36;16.23;;;3.58;;
77955;SDS011;67152;36.266;32.294;2023-08-07T11:19:04;9.43;;;3.17;;
77955;SDS011;67152;36.266;32.294;2023-08-07T11:21:33;14.48;;;3.80;;
77955;SDS011;67152;36.266;32.294;2023-08-07T11:24:01;11.52;;;3.38;;
77955;SDS011;67152;36.266;32.294;2023-08-07T11:26:28;12.38;;;3.92;;
77955;SDS011;67152;36.266;32.294;2023-08-07T11:28:55;13.05;;;3.95;;
77955;SDS011;67152;36.266;32.294;2023-08-07T11:31:22;19.58;;;4.15;;
77955;SDS011;67152;36.266;32.294;2023-08-07T11:33:57;12.55;;;3.80;;
77955;SDS011;67152;36.266;32.294;2023-08-07T11:36:24;14.60;;;3.75;;
77955;SDS011;67152;36.266;32.294;2023-08-07T11:38:51;12.68;;;3.58;;
77955;SDS011;67152;36.266;32.294;2023-08-07T11:41:18;12.55;;;3.42;;
77955;SDS011;67152;36.266;32.294;2023-08-07T11:43:45;14.90;;;3.53;;
77955;SDS011;67152;36.266;32.294;2023-08-07T11:46:13;19.73;;;3.58;;
77955;SDS011;67152;36.266;32.294;2023-08-07T11:48:59;11.55;;;3.15;;
77955;SDS011;67152;36.266;32.294;2023-08-07T11:52:05;19.17;;;3.88;;
77955;SDS011;67152;36.266;32.294;2023-08-07T11:54:34;10.55;;;3.17;;
77955;SDS011;67152;36.266;32.294;2023-08-07T11:57:01;9.30;;;2.83;;
77955;SDS011;67152;36.266;32.294;2023-08-07T11:59:28;14.98;;;3.05;;
77955;SDS011;67152;36.266;32.294;2023-08-07T12:01:54;22.13;;;3.67;;
77955;SDS011;67152;36.266;32.294;2023-08-07T12:04:22;9.77;;;3.25;;
77955;SDS011;67152;36.266;32.294;2023-08-07T12:09:19;15.88;;;3.28;;
77955;SDS011;67152;36.266;32.294;2023-08-07T12:11:45;12.88;;;3.53;;
77955;SDS011;67152;36.266;32.294;2023-08-07T12:14:15;12.23;;;3.25;;
77955;SDS011;67152;36.266;32.294;2023-08-07T12:16:46;17.77;;;3.47;;
77955;SDS011;67152;36.266;32.294;2023-08-07T12:19:13;17.35;;;2.90;;
77955;SDS011;67152;36.266;32.294;2023-08-07T12:21:42;12.85;;;3.22;;
77955;SDS011;67152;36.266;32.294;2023-08-07T12:24:09;18.52;;;3.20;;
77955;SDS011;67152;36.266;32.294;2023-08-07T12:26:36;16.30;;;3.50;;
77955;SDS011;67152;36.266;32.294;2023-08-07T12:29:02;15.23;;;3.45;;
77955;SDS011;67152;36.266;32.294;2023-08-07T12:31:29;19.40;;;3.35;;
77955;SDS011;67152;36.266;32.294;2023-08-07T12:33:58;14.88;;;3.72;;
77955;SDS011;67152;36.266;32.294;2023-08-07T12:36:25;14.50;;;3.58;;
77955;SDS011;67152;36.266;32.294;2023-08-07T12:38:52;15.02;;;3.00;;
77955;SDS011;67152;36.266;32.294;2023-08-07T12:43:44;10.95;;;2.75;;
77955;SDS011;67152;36.266;32.294;2023-08-07T12:46:12;14.88;;;4.03;;
77955;SDS011;67152;36.266;32.294;2023-08-07T12:51:04;17.67;;;3.50;;
77955;SDS011;67152;36.266;32.294;2023-08-07T12:53:31;21.33;;;4.18;;
77955;SDS011;67152;36.266;32.294;2023-08-07T12:58:24;14.57;;;3.78;;
77955;SDS011;67152;36.266;32.294;2023-08-07T13:00:53;17.02;;;3.90;;
77955;SDS011;67152;36.266;32.294;2023-08-07T13:05:46;15.57;;;4.10;;
77955;SDS011;67152;36.266;32.294;2023-08-07T13:08:13;22.40;;;4.40;;
77955;SDS011;67152;36.266;32.294;2023-08-07T13:10:40;16.27;;;4.50;;
77955;SDS011;67152;36.266;32.294;2023-08-07T13:13:06;15.73;;;4.35;;
77955;SDS011;67152;36.266;32.294;2023-08-07T13:15:33;13.25;;;4.40;;
77955;SDS011;67152;36.266;32.294;2023-08-07T13:20:26;19.05;;;5.40;;
77955;SDS011;67152;36.266;32.294;2023-08-07T13:22:53;18.50;;;4.70;;
77955;SDS011;67152;36.266;32.294;2023-08-07T13:25:19;29.67;;;5.75;;
77955;SDS011;67152;36.266;32.294;2023-08-07T13:27:46;18.55;;;4.95;;
77955;SDS011;67152;36.266;32.294;2023-08-07T13:30:13;22.67;;;4.95;;
77955;SDS011;67152;36.266;32.294;2023-08-07T13:32:40;16.75;;;4.55;;
77955;SDS011;67152;36.266;32.294;2023-08-07T13:35:06;14.55;;;4.57;;
77955;SDS011;67152;36.266;32.294;2023-08-07T13:37:35;76.40;;;8.27;;
77955;SDS011;67152;36.266;32.294;2023-08-07T13:40:06;14.00;;;4.15;;
77955;SDS011;67152;36.266;32.294;2023-08-07T13:42:34;14.45;;;4.85;;
77955;SDS011;67152;36.266;32.294;2023-08-07T13:45:02;21.65;;;4.75;;
77955;SDS011;67152;36.266;32.294;2023-08-07T13:47:49;18.48;;;5.80;;
77955;SDS011;67152;36.266;32.294;2023-08-07T13:50:16;49.53;;;9.18;;
77955;SDS011;67152;36.266;32.294;2023-08-07T13:52:42;32.35;;;6.00;;
77955;SDS011;67152;36.266;32.294;2023-08-07T13:57:35;19.63;;;5.15;;
77955;SDS011;67152;36.266;32.294;2023-08-07T14:00:02;16.45;;;4.65;;
77955;SDS011;67152;36.266;32.294;2023-08-07T14:02:29;17.75;;;4.75;;
77955;SDS011;67152;36.266;32.294;2023-08-07T14:04:57;20.83;;;4.80;;
77955;SDS011;67152;36.266;32.294;2023-08-07T14:07:24;17.00;;;4.93;;
77955;SDS011;67152;36.266;32.294;2023-08-07T14:09:51;19.85;;;5.15;;
77955;SDS011;67152;36.266;32.294;2023-08-07T14:17:10;17.45;;;4.70;;
77955;SDS011;67152;36.266;32.294;2023-08-07T14:19:36;20.05;;;5.45;;
77955;SDS011;67152;36.266;32.294;2023-08-07T14:22:03;17.10;;;4.70;;
77955;SDS011;67152;36.266;32.294;2023-08-07T14:24:30;28.10;;;6.15;;
77955;SDS011;67152;36.266;32.294;2023-08-07T14:26:57;22.13;;;5.22;;
77955;SDS011;67152;36.266;32.294;2023-08-07T14:29:24;35.88;;;5.88;;
77955;SDS011;67152;36.266;32.294;2023-08-07T14:31:50;23.70;;;5.68;;
77955;SDS011;67152;36.266;32.294;2023-08-07T14:34:17;17.25;;;5.05;;
77955;SDS011;67152;36.266;32.294;2023-08-07T14:36:45;24.45;;;5.22;;
77955;SDS011;67152;36.266;32.294;2023-08-07T14:44:05;12.25;;;4.20;;
77955;SDS011;67152;36.266;32.294;2023-08-07T14:51:25;16.50;;;4.80;;
77955;SDS011;67152;36.266;32.294;2023-08-07T14:53:54;18.75;;;4.82;;
77955;SDS011;67152;36.266;32.294;2023-08-07T14:58:47;18.85;;;4.60;;
77955;SDS011;67152;36.266;32.294;2023-08-07T15:01:14;23.80;;;6.25;;
77955;SDS011;67152;36.266;32.294;2023-08-07T15:06:07;29.77;;;5.82;;
77955;SDS011;67152;36.266;32.294;2023-08-07T15:08:34;21.70;;;5.35;;
77955;SDS011;67152;36.266;32.294;2023-08-07T15:13:27;24.10;;;5.97;;
77955;SDS011;67152;36.266;32.294;2023-08-07T15:15:59;23.33;;;5.60;;
77955;SDS011;67152;36.266;32.294;2023-08-07T15:18:32;22.52;;;5.97;;
77955;SDS011;67152;36.266;32.294;2023-08-07T15:21:21;23.02;;;6.05;;
77955;SDS011;67152;36.266;32.294;2023-08-07T15:26:14;18.38;;;4.95;;
77955;SDS011;67152;36.266;32.294;2023-08-07T15:33:35;22.67;;;5.32;;
77955;SDS011;67152;36.266;32.294;2023-08-07T15:36:02;20.58;;;5.18;;